createdAt,value
2019-03-01T00:01:32.941Z,100749.69
2019-03-01T00:04:22.412Z,100746.39
2019-03-01T00:08:19.223Z,100748.38
2019-03-01T00:11:35.767Z,100750.30
2019-03-01T00:14:42.515Z,100741.55
2019-03-01T00:18:19.286Z,100725.27
2019-03-01T00:21:49.569Z,100730.05
2019-03-01T00:25:16.066Z,100723.77
2019-03-01T00:28:36.712Z,100713.55
2019-03-01T00:31:53.886Z,100716.44
2019-03-01T00:35:13.921Z,100718.24
2019-03-01T00:39:05.589Z,100718.61
2019-03-01T00:42:39.980Z,100725.42
2019-03-01T00:45:10.615Z,100721.51
2019-03-01T00:47:41.435Z,100724.74
2019-03-01T00:50:12.062Z,100732.69
2019-03-01T00:52:42.714Z,100723.16
2019-03-01T00:55:13.432Z,100718.91
2019-03-01T00:57:44.096Z,100713.36
2019-03-01T01:00:27.370Z,100715.13
2019-03-01T01:02:58.025Z,100715.72
2019-03-01T01:05:28.711Z,100708.39
2019-03-01T01:07:59.540Z,100705.43
2019-03-01T01:10:30.428Z,100705.61
2019-03-01T01:13:00.995Z,100703.34
2019-03-01T01:15:32.027Z,100704.66
2019-03-01T01:18:02.733Z,100701.58
2019-03-01T01:20:33.362Z,100703.34
2019-03-01T01:23:04.467Z,100702.89
2019-03-01T01:25:35.221Z,100698.28
2019-03-01T01:28:05.922Z,100701.50
2019-03-01T01:30:36.998Z,100701.36
2019-03-01T01:33:07.673Z,100693.28
2019-03-01T01:35:38.343Z,100689.28
2019-03-01T01:38:09.049Z,100685.77
2019-03-01T01:40:39.658Z,100677.42
2019-03-01T01:43:10.363Z,100674.42
2019-03-01T01:45:40.982Z,100672.16
2019-03-01T01:48:11.675Z,100672.43
2019-03-01T01:50:42.328Z,100660.79
2019-03-01T01:53:13.085Z,100658.30
2019-03-01T01:55:43.908Z,100652.95
2019-03-01T01:58:14.663Z,100653.47
2019-03-01T02:00:45.412Z,100658.70
2019-03-01T02:03:16.094Z,100664.77
2019-03-01T02:05:47.204Z,100676.81
2019-03-01T02:08:17.955Z,100668.05
2019-03-01T02:10:48.694Z,100661.69
2019-03-01T02:13:19.440Z,100659.70
2019-03-01T02:15:50.023Z,100658.46
2019-03-01T02:18:20.857Z,100651.74
2019-03-01T02:20:51.501Z,100650.48
2019-03-01T02:23:22.169Z,100647.28
2019-03-01T02:25:52.834Z,100640.56
2019-03-01T02:28:23.563Z,100639.84
2019-03-01T02:30:55.437Z,100633.66
2019-03-01T02:33:26.094Z,100626.79
2019-03-01T02:35:56.817Z,100622.41
2019-03-01T02:38:27.512Z,100621.69
2019-03-01T02:40:58.237Z,100615.42
2019-03-01T02:43:28.913Z,100618.05
2019-03-01T02:45:59.669Z,100612.88
2019-03-01T02:48:30.345Z,100612.71
2019-03-01T02:51:00.981Z,100614.38
2019-03-01T02:53:31.571Z,100615.42
2019-03-01T02:56:02.247Z,100612.34
2019-03-01T02:58:32.887Z,100612.45
2019-03-01T03:01:03.877Z,100613.95
2019-03-01T03:03:34.529Z,100622.30
2019-03-01T03:06:29.979Z,100623.37
2019-03-01T03:09:00.721Z,100625.05
2019-03-01T03:11:31.405Z,100625.66
2019-03-01T03:14:01.984Z,100624.52
2019-03-01T03:16:32.836Z,100624.34
2019-03-01T03:19:03.581Z,100618.56
2019-03-01T03:21:34.294Z,100622.39
2019-03-01T03:24:04.914Z,100622.39
2019-03-01T03:26:35.410Z,100623.03
2019-03-01T03:29:05.941Z,100628.27
2019-03-01T03:31:36.493Z,100618.56
2019-03-01T03:34:07.077Z,100614.92
2019-03-01T03:36:37.620Z,100618.97
2019-03-01T03:39:12.620Z,100622.90
2019-03-01T03:41:43.162Z,100620.64
2019-03-01T03:44:13.676Z,100621.46
2019-03-01T03:46:44.355Z,100622.73
2019-03-01T03:49:14.852Z,100622.70
2019-03-01T03:51:45.374Z,100615.48
2019-03-01T03:54:15.891Z,100613.22
2019-03-01T03:56:46.579Z,100607.84
2019-03-01T03:59:17.041Z,100605.88
2019-03-01T04:01:47.633Z,100601.61
2019-03-01T04:04:18.127Z,100600.72
2019-03-01T04:06:48.614Z,100600.16
2019-03-01T04:09:19.123Z,100601.46
2019-03-01T04:11:49.607Z,100596.67
2019-03-01T04:14:20.146Z,100599.80
2019-03-01T04:16:50.683Z,100592.98
2019-03-01T04:19:21.240Z,100594.55
2019-03-01T04:21:51.711Z,100591.12
2019-03-01T04:24:22.189Z,100589.86
2019-03-01T04:26:52.766Z,100591.77
2019-03-01T04:29:23.251Z,100591.58
2019-03-01T04:31:53.767Z,100594.02
2019-03-01T04:34:24.283Z,100602.99
2019-03-01T04:36:54.758Z,100599.97
2019-03-01T04:39:25.312Z,100598.39
2019-03-01T04:41:55.851Z,100601.42
2019-03-01T04:44:26.392Z,100601.42
2019-03-01T04:46:56.929Z,100600.31
2019-03-01T04:49:27.442Z,100605.35
2019-03-01T04:51:58.090Z,100600.50
2019-03-01T04:54:28.690Z,100600.11
2019-03-01T04:56:59.206Z,100603.91
2019-03-01T04:59:29.688Z,100609.59
2019-03-01T05:02:00.410Z,100600.21
2019-03-01T05:04:30.944Z,100609.30
2019-03-01T05:07:01.499Z,100605.20
2019-03-01T05:09:31.998Z,100611.31
2019-03-01T05:12:02.889Z,100610.00
2019-03-01T05:14:33.392Z,100619.23
2019-03-01T05:17:03.942Z,100619.42
2019-03-01T05:19:34.613Z,100623.16
2019-03-01T05:22:05.118Z,100614.94
2019-03-01T05:24:35.721Z,100622.80
2019-03-01T05:27:06.273Z,100616.44
2019-03-01T05:29:36.798Z,100618.94
2019-03-01T05:32:08.390Z,100620.28
2019-03-01T05:34:38.938Z,100624.56
2019-03-01T05:37:09.464Z,100623.81
2019-03-01T05:39:40.068Z,100630.93
2019-03-01T05:42:10.624Z,100631.88
2019-03-01T05:44:41.160Z,100630.34
2019-03-01T05:47:11.739Z,100634.63
2019-03-01T05:49:42.271Z,100635.39
2019-03-01T05:52:12.803Z,100640.18
2019-03-01T05:54:43.314Z,100639.95
2019-03-01T05:57:13.839Z,100638.19
2019-03-01T05:59:44.347Z,100637.83
2019-03-01T06:03:01.769Z,100643.02
2019-03-01T06:05:39.450Z,100647.71
2019-03-01T06:08:56.590Z,100645.59
2019-03-01T06:12:08.907Z,100643.23
2019-03-01T06:15:24.473Z,100642.66
2019-03-01T06:19:08.838Z,100649.96
2019-03-01T06:22:33.194Z,100646.63
2019-03-01T06:25:50.504Z,100648.47
2019-03-01T06:29:06.640Z,100646.80
2019-03-01T06:32:42.260Z,100637.87
2019-03-01T06:35:48.099Z,100646.93
2019-03-01T06:39:31.638Z,100652.65
2019-03-01T06:42:19.243Z,100662.34
2019-03-01T06:45:30.788Z,100665.17
2019-03-01T06:48:01.299Z,100662.19
2019-03-01T06:50:49.571Z,100671.13
2019-03-01T06:53:20.097Z,100667.57
2019-03-01T06:56:06.853Z,100676.75
2019-03-01T06:58:47.594Z,100673.77
2019-03-01T07:01:19.504Z,100685.45
2019-03-01T07:03:55.088Z,100680.67
2019-03-01T07:06:25.628Z,100675.44
2019-03-01T07:08:56.179Z,100684.77
2019-03-01T07:11:26.717Z,100680.20
2019-03-01T07:13:57.258Z,100681.71
2019-03-01T07:16:27.815Z,100685.72
2019-03-01T07:18:58.536Z,100694.13
2019-03-01T07:21:29.047Z,100694.69
2019-03-01T07:23:59.590Z,100691.70
2019-03-01T07:26:30.118Z,100688.61
2019-03-01T07:29:02.194Z,100690.67
2019-03-01T07:31:32.769Z,100698.03
2019-03-01T07:34:03.595Z,100694.95
2019-03-01T07:36:34.161Z,100702.06
2019-03-01T07:39:06.061Z,100702.34
2019-03-01T07:41:36.620Z,100703.55
2019-03-01T07:44:07.213Z,100715.69
2019-03-01T07:46:37.831Z,100714.47
2019-03-01T07:49:08.402Z,100720.62
2019-03-01T07:51:38.948Z,100716.89
2019-03-01T07:54:09.510Z,100722.33
2019-03-01T07:56:40.844Z,100729.22
2019-03-01T07:59:11.541Z,100729.88
2019-03-01T08:01:42.030Z,100734.27
2019-03-01T08:04:12.703Z,100729.04
2019-03-01T08:06:45.581Z,100722.70
2019-03-01T08:09:15.964Z,100729.58
2019-03-01T08:11:46.519Z,100727.64
2019-03-01T08:14:17.037Z,100731.36
2019-03-01T08:16:47.597Z,100735.77
2019-03-01T08:19:22.368Z,100741.17
2019-03-01T08:21:50.766Z,100751.25
2019-03-01T08:24:21.333Z,100750.34
2019-03-01T08:26:51.887Z,100751.09
2019-03-01T08:29:22.459Z,100752.95
2019-03-01T08:31:55.726Z,100757.23
2019-03-01T08:34:25.315Z,100758.55
2019-03-01T08:36:55.844Z,100751.73
2019-03-01T08:39:26.401Z,100751.08
2019-03-01T08:42:00.191Z,100764.42
2019-03-01T08:44:29.288Z,100766.66
2019-03-01T08:46:59.869Z,100765.73
2019-03-01T08:49:30.426Z,100762.94
2019-03-01T08:52:01.474Z,100765.82
2019-03-01T08:54:32.848Z,100772.27
2019-03-01T08:57:03.412Z,100780.31
2019-03-01T08:59:33.912Z,100783.56
2019-03-01T09:02:05.224Z,100784.03
2019-03-01T09:04:37.913Z,100784.53
2019-03-01T09:07:08.062Z,100795.34
2019-03-01T09:09:38.624Z,100802.27
2019-03-01T09:12:09.180Z,100796.38
2019-03-01T09:14:39.721Z,100795.36
2019-03-01T09:17:10.336Z,100794.78
2019-03-01T09:19:40.862Z,100799.83
2019-03-01T09:22:11.390Z,100789.63
2019-03-01T09:24:41.914Z,100796.73
2019-03-01T09:27:12.706Z,100793.28
2019-03-01T09:29:43.180Z,100798.77
2019-03-01T09:32:13.741Z,100794.67
2019-03-01T09:34:46.117Z,100796.80
2019-03-01T09:37:16.995Z,100799.33
2019-03-01T09:39:50.355Z,100803.20
2019-03-01T09:42:19.794Z,100807.48
2019-03-01T09:44:50.256Z,100800.39
2019-03-01T09:47:20.770Z,100797.84
2019-03-01T09:49:51.217Z,100798.33
2019-03-01T09:52:23.681Z,100809.81
2019-03-01T09:54:53.968Z,100811.22
2019-03-01T09:57:24.436Z,100820.57
2019-03-01T09:59:54.964Z,100815.01
2019-03-01T10:02:25.454Z,100815.31
2019-03-01T10:04:55.953Z,100824.53
2019-03-01T10:07:26.448Z,100822.79
2019-03-01T10:09:58.205Z,100816.45
2019-03-01T10:12:28.775Z,100816.50
2019-03-01T10:14:59.284Z,100813.58
2019-03-01T10:17:29.876Z,100823.90
2019-03-01T10:20:00.380Z,100821.46
2019-03-01T10:22:30.851Z,100823.92
2019-03-01T10:25:01.464Z,100812.94
2019-03-01T10:27:32.097Z,100809.06
2019-03-01T10:30:02.548Z,100809.46
2019-03-01T10:32:33.103Z,100805.99
2019-03-01T10:35:03.512Z,100807.57
2019-03-01T10:37:34.038Z,100807.61
2019-03-01T10:40:05.126Z,100808.55
2019-03-01T10:42:35.750Z,100810.27
2019-03-01T10:45:08.319Z,100818.62
2019-03-01T10:47:38.870Z,100824.20
2019-03-01T10:50:10.226Z,100826.12
2019-03-01T10:52:40.741Z,100828.80
2019-03-01T10:55:14.363Z,100835.89
2019-03-01T10:57:44.926Z,100840.77
2019-03-01T11:00:27.111Z,100841.70
2019-03-01T11:02:57.726Z,100839.99
2019-03-01T11:05:28.357Z,100855.16
2019-03-01T11:07:58.895Z,100857.91
2019-03-01T11:10:35.212Z,100856.19
2019-03-01T11:13:06.506Z,100861.42
2019-03-01T11:15:37.004Z,100859.92
2019-03-01T11:18:07.554Z,100854.95
2019-03-01T11:20:38.066Z,100857.08
2019-03-01T11:23:08.533Z,100848.13
2019-03-01T11:25:39.005Z,100848.47
2019-03-01T11:28:10.516Z,100846.17
2019-03-01T11:30:41.171Z,100855.11
2019-03-01T11:33:11.659Z,100857.38
2019-03-01T11:35:42.142Z,100860.23
2019-03-01T11:38:12.648Z,100859.29
2019-03-01T11:40:43.153Z,100863.52
2019-03-01T11:43:13.623Z,100876.27
2019-03-01T11:45:44.096Z,100879.70
2019-03-01T11:48:14.587Z,100891.84
2019-03-01T11:50:45.339Z,100880.28
2019-03-01T11:53:15.841Z,100883.75
2019-03-01T11:55:46.391Z,100882.09
2019-03-01T11:58:16.914Z,100876.50
2019-03-01T12:00:52.047Z,100879.25
2019-03-01T12:03:19.697Z,100887.79
2019-03-01T12:05:50.225Z,100878.15
2019-03-01T12:08:20.779Z,100872.89
2019-03-01T12:10:51.314Z,100874.80
2019-03-01T12:13:21.936Z,100867.18
2019-03-01T12:15:52.444Z,100873.77
2019-03-01T12:18:22.929Z,100870.24
2019-03-01T12:20:53.492Z,100868.45
2019-03-01T12:23:24.026Z,100870.44
2019-03-01T12:25:54.494Z,100858.88
2019-03-01T12:28:25.074Z,100870.84
2019-03-01T12:30:55.485Z,100860.64
2019-03-01T12:33:26.071Z,100867.11
2019-03-01T12:35:56.613Z,100881.40
2019-03-01T12:38:27.101Z,100863.31
2019-03-01T12:40:57.683Z,100866.80
2019-03-01T12:43:28.284Z,100859.46
2019-03-01T12:45:58.844Z,100858.92
2019-03-01T12:48:29.301Z,100860.39
2019-03-01T12:50:59.843Z,100866.75
2019-03-01T12:53:30.393Z,100864.84
2019-03-01T12:56:00.884Z,100863.77
2019-03-01T12:58:31.563Z,100859.48
2019-03-01T13:01:02.060Z,100868.97
2019-03-01T13:03:32.663Z,100863.05
2019-03-01T13:06:03.831Z,100864.71
2019-03-01T13:08:35.180Z,100866.77
2019-03-01T13:11:05.745Z,100874.13
2019-03-01T13:13:38.424Z,100868.11
2019-03-01T13:16:08.500Z,100872.06
2019-03-01T13:18:39.000Z,100883.44
2019-03-01T13:21:12.526Z,100875.76
2019-03-01T13:23:41.767Z,100877.63
2019-03-01T13:26:12.350Z,100874.48
2019-03-01T13:28:43.823Z,100884.34
2019-03-01T13:31:15.176Z,100886.63
2019-03-01T13:33:45.684Z,100888.14
2019-03-01T13:36:16.287Z,100889.81
2019-03-01T13:38:46.767Z,100879.45
2019-03-01T13:41:17.295Z,100879.59
2019-03-01T13:43:47.897Z,100881.86
2019-03-01T13:46:18.491Z,100904.77
2019-03-01T13:48:50.867Z,100897.48
2019-03-01T13:51:21.240Z,100900.06
2019-03-01T13:53:51.715Z,100906.48
2019-03-01T13:56:22.287Z,100903.59
2019-03-01T13:58:52.714Z,100906.67
2019-03-01T14:01:23.642Z,100918.34
2019-03-01T14:03:55.456Z,100905.69
2019-03-01T14:06:25.953Z,100906.31
2019-03-01T14:08:56.442Z,100907.08
2019-03-01T14:11:26.927Z,100918.20
2019-03-01T14:13:58.211Z,100915.94
2019-03-01T14:16:28.815Z,100921.12
2019-03-01T14:18:59.424Z,100921.91
2019-03-01T14:21:32.850Z,100922.07
2019-03-01T14:24:02.173Z,100923.59
2019-03-01T14:26:32.666Z,100915.89
2019-03-01T14:29:03.222Z,100922.14
2019-03-01T14:31:33.683Z,100922.76
2019-03-01T14:34:04.296Z,100918.77
2019-03-01T14:36:34.857Z,100918.03
2019-03-01T14:39:09.293Z,100915.34
2019-03-01T14:41:39.787Z,100923.19
2019-03-01T14:44:10.325Z,100918.36
2019-03-01T14:46:40.914Z,100918.93
2019-03-01T14:49:11.496Z,100924.59
2019-03-01T14:51:46.594Z,100927.27
2019-03-01T14:54:14.381Z,100924.72
2019-03-01T14:57:00.024Z,100934.45
2019-03-01T14:59:54.393Z,100923.88
2019-03-01T15:02:40.769Z,100926.06
2019-03-01T15:05:18.782Z,100924.50
2019-03-01T15:07:43.867Z,100932.34
2019-03-01T15:10:14.988Z,100934.17
2019-03-01T15:12:45.524Z,100937.86
2019-03-01T15:15:16.290Z,100935.09
2019-03-01T15:17:46.797Z,100927.38
2019-03-01T15:20:23.313Z,100931.95
2019-03-01T15:22:49.798Z,100935.52
2019-03-01T15:25:20.252Z,100930.70
2019-03-01T15:27:51.345Z,100935.00
2019-03-01T15:30:23.195Z,100939.38
2019-03-01T15:32:53.875Z,100938.47
2019-03-01T15:35:24.402Z,100943.77
2019-03-01T15:37:54.972Z,100943.64
2019-03-01T15:40:30.301Z,100942.53
2019-03-01T15:42:58.699Z,100945.25
2019-03-01T15:45:29.319Z,100943.67
2019-03-01T15:48:01.858Z,100942.41
2019-03-01T15:50:32.352Z,100949.42
2019-03-01T15:53:02.862Z,100952.77
2019-03-01T15:55:33.416Z,100951.52
2019-03-01T15:58:03.905Z,100955.39
2019-03-01T16:00:34.436Z,100960.42
2019-03-01T16:03:05.754Z,100969.58
2019-03-01T16:05:37.371Z,100969.94
2019-03-01T16:08:09.697Z,100977.13
2019-03-01T16:10:40.280Z,100971.09
2019-03-01T16:13:12.122Z,100980.80
2019-03-01T16:15:43.288Z,100980.91
2019-03-01T16:18:54.345Z,100983.33
2019-03-01T16:21:24.964Z,100993.25
2019-03-01T16:23:55.530Z,100990.88
2019-03-01T16:26:29.801Z,100996.28
2019-03-01T16:28:58.439Z,100993.03
2019-03-01T16:31:31.941Z,100997.23
2019-03-01T16:34:04.559Z,101004.16
2019-03-01T16:36:36.816Z,101008.19
2019-03-01T16:39:13.261Z,101010.09
2019-03-01T16:41:44.033Z,101010.30
2019-03-01T16:44:14.670Z,101017.91
2019-03-01T16:46:45.213Z,101016.13
2019-03-01T16:49:15.776Z,101008.27
2019-03-01T16:51:46.331Z,101017.41
2019-03-01T16:54:16.850Z,101017.69
2019-03-01T16:56:47.431Z,101016.56
2019-03-01T16:59:17.898Z,101016.61
2019-03-01T17:01:48.429Z,101022.94
2019-03-01T17:04:20.478Z,101030.64
2019-03-01T17:06:51.000Z,101023.17
2019-03-01T17:09:22.625Z,101028.23
2019-03-01T17:11:53.172Z,101035.44
2019-03-01T17:14:23.698Z,101032.67
2019-03-01T17:16:56.308Z,101036.52
2019-03-01T17:19:27.563Z,101046.64
2019-03-01T17:21:58.443Z,101047.77
2019-03-01T17:24:29.049Z,101054.51
2019-03-01T17:27:02.040Z,101057.70
2019-03-01T17:29:31.958Z,101058.16
2019-03-01T17:32:02.685Z,101060.79
2019-03-01T17:34:33.282Z,101064.99
2019-03-01T17:37:03.886Z,101070.42
2019-03-01T17:39:34.467Z,101072.09
2019-03-01T17:42:05.042Z,101073.63
2019-03-01T17:44:35.679Z,101073.80
2019-03-01T17:47:09.656Z,101078.85
2019-03-01T17:49:38.485Z,101081.29
2019-03-01T17:52:09.049Z,101076.53
2019-03-01T17:54:39.618Z,101079.23
2019-03-01T17:57:10.124Z,101082.97
2019-03-01T17:59:40.569Z,101088.70
2019-03-01T18:02:12.144Z,101086.53
2019-03-01T18:04:43.545Z,101083.92
2019-03-01T18:07:14.196Z,101080.84
2019-03-01T18:09:44.769Z,101087.09
2019-03-01T18:12:17.447Z,101092.91
2019-03-01T18:14:47.625Z,101083.38
2019-03-01T18:17:18.203Z,101086.16
2019-03-01T18:19:48.787Z,101089.35
2019-03-01T18:22:19.354Z,101092.53
2019-03-01T18:24:50.721Z,101091.52
2019-03-01T18:27:21.399Z,101089.80
2019-03-01T18:29:51.937Z,101091.78
2019-03-01T18:32:22.497Z,101094.77
2019-03-01T18:34:52.982Z,101094.68
2019-03-01T18:37:23.569Z,101097.39
2019-03-01T18:39:54.085Z,101095.89
2019-03-01T18:42:24.734Z,101093.84
2019-03-01T18:44:55.261Z,101096.09
2019-03-01T18:47:27.891Z,101104.05
2019-03-01T18:49:58.146Z,101097.39
2019-03-01T18:52:28.800Z,101099.09
2019-03-01T18:54:59.350Z,101096.46
2019-03-01T18:57:29.998Z,101100.39
2019-03-01T19:00:01.110Z,101094.42
2019-03-01T19:02:31.912Z,101095.33
2019-03-01T19:05:04.579Z,101105.91
2019-03-01T19:07:35.016Z,101103.38
2019-03-01T19:10:06.714Z,101103.39
2019-03-01T19:12:37.517Z,101105.34
2019-03-01T19:15:12.187Z,101113.67
2019-03-01T19:17:44.508Z,101116.50
2019-03-01T19:20:20.270Z,101116.86
2019-03-01T19:22:51.019Z,101121.72
2019-03-01T19:25:25.147Z,101121.72
2019-03-01T19:27:54.213Z,101119.30
2019-03-01T19:30:25.025Z,101128.55
2019-03-01T19:32:58.835Z,101129.59
2019-03-01T19:35:29.553Z,101124.62
2019-03-01T19:38:00.382Z,101123.40
2019-03-01T19:40:30.953Z,101128.08
2019-03-01T19:43:01.661Z,101120.01
2019-03-01T19:45:32.579Z,101118.33
2019-03-01T19:48:03.556Z,101126.56
2019-03-01T19:50:34.358Z,101123.40
2019-03-01T19:53:05.553Z,101125.37
2019-03-01T19:55:36.191Z,101121.64
2019-03-01T19:58:08.803Z,101120.04
2019-03-01T20:00:42.617Z,101123.80
2019-03-01T20:03:12.184Z,101129.66
2019-03-01T20:05:42.928Z,101128.55
2019-03-01T20:08:13.721Z,101124.14
2019-03-01T20:10:44.452Z,101130.15
2019-03-01T20:13:16.480Z,101132.56
2019-03-01T20:15:47.856Z,101128.27
2019-03-01T20:18:19.301Z,101129.38
2019-03-01T20:20:50.168Z,101134.64
2019-03-01T20:23:21.495Z,101127.52
2019-03-01T20:25:52.081Z,101126.30
2019-03-01T20:28:22.639Z,101132.22
2019-03-01T20:30:53.224Z,101132.42
2019-03-01T20:33:26.976Z,101132.77
2019-03-01T20:35:56.251Z,101131.45
2019-03-01T20:38:26.826Z,101134.81
2019-03-01T20:40:59.822Z,101133.51
2019-03-01T20:43:29.792Z,101139.69
2019-03-01T20:46:00.410Z,101135.77
2019-03-01T20:48:32.227Z,101139.32
2019-03-01T20:51:03.082Z,101141.94
2019-03-01T20:53:33.627Z,101141.37
2019-03-01T20:56:04.153Z,101136.13
2019-03-01T20:58:35.871Z,101142.39
2019-03-01T21:01:06.989Z,101139.52
2019-03-01T21:03:37.454Z,101142.14
2019-03-01T21:06:07.994Z,101139.04
2019-03-01T21:08:38.528Z,101141.74
2019-03-01T21:11:10.229Z,101142.31
2019-03-01T21:13:40.848Z,101145.66
2019-03-01T21:16:11.467Z,101148.41
2019-03-01T21:18:42.115Z,101147.75
2019-03-01T21:21:12.778Z,101149.97
2019-03-01T21:23:43.283Z,101150.91
2019-03-01T21:26:15.668Z,101152.22
2019-03-01T21:28:46.440Z,101146.61
2019-03-01T21:31:17.058Z,101144.73
2019-03-01T21:33:47.657Z,101148.66
2019-03-01T21:36:18.365Z,101146.98
2019-03-01T21:38:49.181Z,101149.03
2019-03-01T21:41:20.768Z,101157.83
2019-03-01T21:43:51.265Z,101151.66
2019-03-01T21:46:21.881Z,101147.16
2019-03-01T21:48:52.404Z,101154.07
2019-03-01T21:51:23.013Z,101158.06
2019-03-01T21:53:53.670Z,101148.30
2019-03-01T21:56:24.238Z,101160.17
2019-03-01T21:58:55.474Z,101159.14
2019-03-01T22:01:26.043Z,101155.87
2019-03-01T22:03:59.339Z,101158.41
2019-03-01T22:06:28.846Z,101152.99
2019-03-01T22:08:59.360Z,101161.39
2019-03-01T22:11:29.831Z,101151.77
2019-03-01T22:14:00.739Z,101156.13
2019-03-01T22:16:32.696Z,101153.50
2019-03-01T22:19:03.542Z,101152.59
2019-03-01T22:21:36.730Z,101160.99
2019-03-01T22:40:16.378Z,101172.78
2019-03-01T22:42:49.815Z,101168.45
2019-03-01T22:45:19.740Z,101168.48
2019-03-01T22:47:50.615Z,101169.99
2019-03-01T22:50:21.999Z,101167.77
2019-03-01T22:52:53.846Z,101163.24
2019-03-01T22:55:24.914Z,101165.49
2019-03-01T22:57:57.735Z,101163.61
2019-03-01T23:01:17.437Z,101155.34
2019-03-01T23:03:57.247Z,101154.16
2019-03-01T23:06:28.309Z,101162.78
2019-03-01T23:08:59.242Z,101160.98
2019-03-01T23:11:32.517Z,101164.27
2019-03-01T23:14:03.077Z,101161.36
2019-03-01T23:16:34.011Z,101158.17
2019-03-01T23:19:04.982Z,101160.59
2019-03-01T23:21:36.808Z,101165.83
2019-03-01T23:24:07.853Z,101155.92
2019-03-01T23:26:38.744Z,101160.67
2019-03-01T23:29:09.769Z,101157.03
2019-03-01T23:31:40.583Z,101158.05
2019-03-01T23:34:12.411Z,101157.97
2019-03-01T23:36:43.337Z,101153.02
2019-03-01T23:39:14.280Z,101150.11
2019-03-01T23:41:46.387Z,101152.11
2019-03-01T23:44:17.687Z,101156.28
2019-03-01T23:46:51.095Z,101154.49
2019-03-01T23:49:23.958Z,101154.49
2019-03-01T23:51:54.565Z,101145.61
2019-03-01T23:54:25.390Z,101147.12
2019-03-01T23:56:56.354Z,101139.52
2019-03-01T23:59:27.549Z,101143.44
